createdAt,value
2023-05-09T00:01:13.469Z,97524.84
2023-05-09T00:06:15.571Z,97527.31
2023-05-09T00:11:17.331Z,97524.56
2023-05-09T00:16:20.627Z,97522.38
2023-05-09T00:21:22.508Z,97511.94
2023-05-09T00:26:24.377Z,97508.38
2023-05-09T00:31:26.694Z,97509.47
2023-05-09T00:36:28.568Z,97506.16
2023-05-09T00:41:30.232Z,97507.84
2023-05-09T00:46:32.430Z,97499.31
2023-05-09T00:51:36.673Z,97493.56
2023-05-09T00:56:39.516Z,97494.38
2023-05-09T01:01:41.607Z,97485.63
2023-05-09T01:07:02.536Z,97481.75
2023-05-09T01:12:31.271Z,97476.28
2023-05-09T01:17:55.443Z,97475.72
2023-05-09T01:23:17.305Z,97469.97
2023-05-09T01:28:51.787Z,97478.22
2023-05-09T01:33:58.293Z,97474.06
2023-05-09T01:39:02.166Z,97466.13
2023-05-09T01:44:07.960Z,97460.63
2023-05-09T01:49:11.967Z,97455.38
2023-05-09T01:54:14.326Z,97462.00
2023-05-09T01:59:16.702Z,97460.91
2023-05-09T02:04:19.166Z,97447.13
2023-05-09T02:09:22.061Z,97457.03
2023-05-09T02:14:23.927Z,97439.47
2023-05-09T02:19:26.133Z,97440.28
2023-05-09T02:24:29.006Z,97430.66
2023-05-09T02:29:40.020Z,97435.63
2023-05-09T02:34:43.658Z,97433.97
2023-05-09T02:39:46.143Z,97429.03
2023-05-09T02:44:48.163Z,97436.72
2023-05-09T02:49:51.113Z,97436.72
2023-05-09T02:54:52.952Z,97430.94
2023-05-09T02:59:54.616Z,97414.75
2023-05-09T03:04:57.526Z,97413.38
2023-05-09T03:09:59.752Z,97412.53
2023-05-09T03:15:02.469Z,97421.31
2023-05-09T03:20:07.910Z,97413.63
2023-05-09T03:25:10.230Z,97416.09
2023-05-09T03:30:12.878Z,97419.88
2023-05-09T03:35:16.296Z,97416.31
2023-05-09T03:40:18.371Z,97413.53
2023-05-09T03:45:28.644Z,97413.97
2023-05-09T03:50:31.259Z,97413.28
2023-05-09T03:55:34.303Z,97422.06
2023-05-09T04:00:36.476Z,97420.94
2023-05-09T04:05:44.843Z,97421.44
2023-05-09T04:10:53.630Z,97432.34
2023-05-09T04:15:56.049Z,97423.53
2023-05-09T04:20:58.797Z,97424.28
2023-05-09T04:26:01.509Z,97428.53
2023-05-09T04:31:04.295Z,97428.53
2023-05-09T04:36:07.832Z,97438.00
2023-05-09T04:41:10.324Z,97439.63
2023-05-09T04:46:12.169Z,97432.97
2023-05-09T04:51:13.947Z,97427.03
2023-05-09T04:56:15.963Z,97420.22
2023-05-09T05:01:19.313Z,97417.81
2023-05-09T05:06:21.611Z,97416.66
2023-05-09T05:11:23.618Z,97413.13
2023-05-09T05:16:25.621Z,97417.31
2023-05-09T05:21:27.773Z,97410.78
2023-05-09T05:26:29.636Z,97415.19
2023-05-09T05:31:32.342Z,97401.53
2023-05-09T05:36:34.277Z,97403.78
2023-05-09T05:41:36.520Z,97405.63
2023-05-09T05:46:40.290Z,97414.16
2023-05-09T05:51:42.569Z,97408.06
2023-05-09T05:56:45.195Z,97402.78
2023-05-09T06:01:47.066Z,97402.50
2023-05-09T06:06:49.632Z,97399.75
2023-05-09T06:11:52.128Z,97403.56
2023-05-09T06:16:54.635Z,97392.50
2023-05-09T06:21:56.663Z,97403.25
2023-05-09T06:26:58.427Z,97383.78
2023-05-09T06:32:01.284Z,97378.00
2023-05-09T06:37:03.265Z,97380.47
2023-05-09T06:42:05.099Z,97374.94
2023-05-09T06:47:12.172Z,97362.75
2023-05-09T06:52:15.667Z,97351.44
2023-05-09T06:57:17.582Z,97348.38
2023-05-09T07:02:19.308Z,97349.44
2023-05-09T07:07:21.072Z,97336.16
2023-05-09T07:12:22.974Z,97326.16
2023-05-09T07:17:25.188Z,97328.34
2023-05-09T07:22:28.235Z,97319.19
2023-05-09T07:27:32.031Z,97316.50
2023-05-09T07:32:34.355Z,97312.94
2023-05-09T07:37:36.853Z,97304.81
2023-05-09T07:42:39.451Z,97302.75
2023-05-09T07:47:41.707Z,97286.56
2023-05-09T07:52:43.476Z,97293.63
2023-05-09T07:57:45.378Z,97289.63
2023-05-09T08:02:47.193Z,97285.16
2023-05-09T08:07:48.952Z,97275.78
2023-05-09T08:12:51.281Z,97269.75
2023-05-09T08:17:53.741Z,97256.53
2023-05-09T08:22:56.155Z,97257.19
2023-05-09T08:27:58.016Z,97248.00
2023-05-09T08:32:59.777Z,97244.19
2023-05-09T08:38:01.526Z,97255.06
2023-05-09T08:43:06.099Z,97243.44
2023-05-09T08:48:09.137Z,97240.44
2023-05-09T08:53:12.288Z,97228.19
2023-05-09T08:58:14.613Z,97225.72
2023-05-09T09:03:17.370Z,97216.44
2023-05-09T09:08:20.593Z,97209.78
2023-05-09T09:13:23.292Z,97202.00
2023-05-09T09:18:29.775Z,97201.34
2023-05-09T09:23:32.896Z,97193.97
2023-05-09T09:28:35.240Z,97189.44
2023-05-09T09:33:36.870Z,97176.44
2023-05-09T09:38:43.901Z,97162.56
2023-05-09T09:43:47.110Z,97153.84
2023-05-09T09:48:52.913Z,97150.69
2023-05-09T09:53:55.664Z,97140.69
2023-05-09T09:59:09.921Z,97130.34
2023-05-09T10:04:16.583Z,97117.25
2023-05-09T10:09:18.922Z,97106.97
2023-05-09T10:14:23.342Z,97103.47
2023-05-09T10:19:27.238Z,97098.38
2023-05-09T10:24:42.111Z,97084.75
2023-05-09T10:29:51.489Z,97072.06
2023-05-09T10:35:01.947Z,97061.31
2023-05-09T10:40:05.113Z,97058.69
2023-05-09T10:45:09.505Z,97050.88
2023-05-09T10:50:13.158Z,97042.38
2023-05-09T10:55:15.648Z,97041.38
2023-05-09T11:00:24.476Z,97026.88
2023-05-09T11:05:39.140Z,97012.63
2023-05-09T11:10:44.840Z,97011.59
2023-05-09T11:16:02.064Z,97002.75
2023-05-09T11:21:11.442Z,96977.50
2023-05-09T11:26:14.710Z,96975.47
2023-05-09T11:31:18.455Z,96958.69
2023-05-09T11:36:25.323Z,96953.81
2023-05-09T11:41:27.777Z,96948.53
2023-05-09T11:46:29.588Z,96932.94
2023-05-09T11:51:31.384Z,96928.41
2023-05-09T11:56:34.985Z,96921.81
2023-05-09T12:01:36.801Z,96918.91
2023-05-09T12:06:38.613Z,96908.94
2023-05-09T12:11:49.846Z,96902.03
2023-05-09T12:16:52.038Z,96895.63
2023-05-09T12:21:58.692Z,96893.84
2023-05-09T12:27:00.709Z,96884.13
2023-05-09T12:32:02.914Z,96872.34
2023-05-09T12:37:18.004Z,96860.94
2023-05-09T12:42:19.666Z,96854.41
2023-05-09T12:47:21.324Z,96843.94
2023-05-09T12:52:23.030Z,96843.22
2023-05-09T12:57:29.376Z,96827.69
2023-05-09T13:02:42.004Z,96822.22
2023-05-09T13:07:49.933Z,96819.03
2023-05-09T13:12:52.758Z,96811.88
2023-05-09T13:17:54.510Z,96800.13
2023-05-09T13:22:56.365Z,96793.47
2023-05-09T13:27:58.211Z,96778.53
2023-05-09T13:33:04.100Z,96776.63
2023-05-09T13:38:14.760Z,96758.81
2023-05-09T13:43:16.454Z,96751.56
2023-05-09T13:48:18.070Z,96742.13
2023-05-09T13:53:20.169Z,96747.88
2023-05-09T13:58:21.915Z,96731.88
2023-05-09T14:03:23.968Z,96727.47
2023-05-09T14:08:25.840Z,96734.16
2023-05-09T14:13:28.086Z,96716.84
2023-05-09T14:18:30.745Z,96696.66
2023-05-09T14:23:32.452Z,96702.97
2023-05-09T14:28:34.335Z,96694.53
2023-05-09T14:33:36.151Z,96689.81
2023-05-09T14:38:38.079Z,96671.47
2023-05-09T14:43:39.723Z,96661.53
2023-05-09T14:48:41.501Z,96658.75
2023-05-09T14:53:43.500Z,96649.75
2023-05-09T14:58:45.397Z,96630.94
2023-05-09T15:03:48.092Z,96630.78
2023-05-09T15:08:49.833Z,96624.63
2023-05-09T15:13:53.460Z,96614.56
2023-05-09T15:18:55.389Z,96608.59
2023-05-09T15:23:58.172Z,96597.28
2023-05-09T15:28:59.791Z,96592.59
2023-05-09T15:34:01.826Z,96596.72
2023-05-09T15:39:05.032Z,96585.56
2023-05-09T15:44:07.326Z,96589.84
2023-05-09T15:49:09.028Z,96581.16
2023-05-09T15:54:10.944Z,96575.13
2023-05-09T15:59:12.633Z,96570.69
2023-05-09T16:04:19.580Z,96567.25
2023-05-09T16:09:21.733Z,96564.81
2023-05-09T16:14:23.523Z,96556.81
2023-05-09T16:19:25.389Z,96545.88
2023-05-09T16:24:27.142Z,96537.41
2023-05-09T16:29:29.017Z,96536.03
2023-05-09T16:34:30.766Z,96523.72
2023-05-09T16:39:32.665Z,96528.78
2023-05-09T16:44:34.350Z,96524.13
2023-05-09T16:49:36.416Z,96513.09
2023-05-09T16:54:38.177Z,96512.03
2023-05-09T16:59:40.051Z,96503.78
2023-05-09T17:04:42.361Z,96494.97
2023-05-09T17:09:44.688Z,96485.50
2023-05-09T17:14:47.774Z,96489.31
2023-05-09T17:19:49.442Z,96489.41
2023-05-09T17:24:51.273Z,96492.53
2023-05-09T17:29:52.949Z,96489.31
2023-05-09T17:34:54.683Z,96485.72
2023-05-09T17:39:56.431Z,96478.06
2023-05-09T17:44:58.237Z,96465.22
2023-05-09T17:49:59.964Z,96452.16
2023-05-09T17:55:01.988Z,96462.84
2023-05-09T18:00:06.960Z,96461.44
2023-05-09T18:05:15.309Z,96453.13
2023-05-09T18:10:17.656Z,96446.50
2023-05-09T18:15:19.460Z,96436.75
2023-05-09T18:20:21.504Z,96440.53
2023-05-09T18:25:24.622Z,96435.31
2023-05-09T18:30:27.411Z,96429.81
2023-05-09T18:35:29.208Z,96424.94
2023-05-09T18:40:32.501Z,96415.38
2023-05-09T18:45:34.566Z,96408.47
2023-05-09T18:50:37.068Z,96409.72
2023-05-09T18:55:38.834Z,96404.13
2023-05-09T19:00:40.618Z,96400.59
2023-05-09T19:05:42.865Z,96398.19
2023-05-09T19:10:44.820Z,96395.50
2023-05-09T19:15:47.251Z,96405.47
2023-05-09T19:20:49.192Z,96404.06
2023-05-09T19:25:53.659Z,96403.84
2023-05-09T19:30:57.036Z,96413.31
2023-05-09T19:35:58.744Z,96423.59
2023-05-09T19:41:00.482Z,96422.97
2023-05-09T19:46:02.249Z,96432.84
2023-05-09T19:51:04.416Z,96429.53
2023-05-09T19:56:08.112Z,96432.50
2023-05-09T20:01:10.032Z,96431.69
2023-05-09T20:06:12.783Z,96441.22
2023-05-09T20:11:14.852Z,96443.84
2023-05-09T20:16:16.756Z,96446.56
2023-05-09T20:21:18.657Z,96440.44
2023-05-09T20:26:23.190Z,96445.38
2023-05-09T20:31:26.273Z,96450.13
2023-05-09T20:36:28.573Z,96445.25
2023-05-09T20:41:30.697Z,96444.38
2023-05-09T20:46:32.466Z,96447.47
2023-05-09T20:51:34.299Z,96442.06
2023-05-09T20:56:36.112Z,96450.03
2023-05-09T21:01:40.576Z,96460.31
2023-05-09T21:06:42.704Z,96467.63
2023-05-09T21:11:45.701Z,96483.75
2023-05-09T21:16:47.518Z,96483.75
2023-05-09T21:21:49.657Z,96479.66
2023-05-09T21:26:51.362Z,96486.88
2023-05-09T21:31:53.539Z,96490.31
2023-05-09T21:36:55.480Z,96518.47
2023-05-09T21:41:57.200Z,96521.56
2023-05-09T21:46:59.079Z,96512.59
2023-05-09T21:52:00.908Z,96517.88
2023-05-09T21:57:02.874Z,96511.34
2023-05-09T22:02:05.218Z,96513.78
2023-05-09T22:07:06.963Z,96505.81
2023-05-09T22:12:08.960Z,96504.53
2023-05-09T22:17:10.697Z,96502.75
2023-05-09T22:22:13.089Z,96497.69
2023-05-09T22:27:14.813Z,96498.97
2023-05-09T22:32:16.523Z,96496.84
2023-05-09T22:37:18.220Z,96499.47
2023-05-09T22:42:21.629Z,96495.56
2023-05-09T22:47:23.512Z,96496.06
2023-05-09T22:52:25.325Z,96496.09
2023-05-09T22:57:27.238Z,96485.03
2023-05-09T23:02:29.088Z,96500.97
2023-05-09T23:07:30.837Z,96498.38
2023-05-09T23:12:32.445Z,96471.69
2023-05-09T23:17:34.223Z,96475.88
2023-05-09T23:22:35.969Z,96473.13
2023-05-09T23:27:40.459Z,96477.22
2023-05-09T23:32:42.739Z,96463.19
2023-05-09T23:37:44.674Z,96463.84
2023-05-09T23:42:46.432Z,96470.34
2023-05-09T23:47:48.220Z,96474.94
2023-05-09T23:52:51.045Z,96475.44
2023-05-09T23:57:52.645Z,96458.66
